createdAt,value
2022-09-07T00:00:43.374Z,1.80
2022-09-07T00:03:46.013Z,1.43
2022-09-07T00:06:48.664Z,1.73
2022-09-07T00:09:52.600Z,2.38
2022-09-07T00:12:55.189Z,1.93
2022-09-07T00:15:58.219Z,2.13
2022-09-07T00:19:02.742Z,2.00
2022-09-07T00:22:05.284Z,1.83
2022-09-07T00:25:10.340Z,2.33
2022-09-07T00:28:12.863Z,2.40
2022-09-07T00:31:17.551Z,2.10
2022-09-07T00:34:20.163Z,2.20
2022-09-07T00:37:22.802Z,2.35
2022-09-07T00:40:26.836Z,2.47
2022-09-07T00:43:34.413Z,2.30
2022-09-07T00:46:37.030Z,2.37
2022-09-07T00:49:40.664Z,2.08
2022-09-07T00:52:44.352Z,2.10
2022-09-07T00:55:49.838Z,2.40
2022-09-07T00:58:52.930Z,2.43
2022-09-07T01:01:55.951Z,2.33
2022-09-07T01:05:07.563Z,2.05
2022-09-07T01:08:13.152Z,2.22
2022-09-07T01:11:18.483Z,2.20
2022-09-07T01:14:24.744Z,2.10
2022-09-07T01:17:33.249Z,3.17
2022-09-07T01:20:49.601Z,2.37
2022-09-07T01:24:28.591Z,2.27
2022-09-07T01:28:11.915Z,2.00
2022-09-07T01:31:20.888Z,2.38
2022-09-07T01:34:26.181Z,1.90
2022-09-07T01:37:34.029Z,1.50
2022-09-07T01:40:42.944Z,1.83
2022-09-07T01:43:51.733Z,2.07
2022-09-07T01:47:00.225Z,1.90
2022-09-07T01:50:07.545Z,1.87
2022-09-07T01:53:15.281Z,2.13
2022-09-07T01:56:20.503Z,2.20
2022-09-07T01:59:28.127Z,1.87
2022-09-07T02:02:32.334Z,2.10
2022-09-07T02:05:37.144Z,2.10
2022-09-07T02:08:43.541Z,2.57
2022-09-07T02:11:47.703Z,1.97
2022-09-07T02:14:54.301Z,1.73
2022-09-07T02:18:02.058Z,1.93
2022-09-07T02:21:05.860Z,2.70
2022-09-07T02:24:11.741Z,1.70
2022-09-07T02:27:17.826Z,1.60
2022-09-07T02:30:21.724Z,2.37
2022-09-07T02:33:24.497Z,1.93
2022-09-07T02:36:30.550Z,1.95
2022-09-07T02:39:33.642Z,2.00
2022-09-07T02:45:48.029Z,2.83
2022-09-07T02:48:54.196Z,2.43
2022-09-07T02:52:01.644Z,1.80
2022-09-07T02:55:10.883Z,1.33
2022-09-07T02:58:22.834Z,1.80
2022-09-07T03:01:34.094Z,1.57
2022-09-07T03:04:43.933Z,1.57
2022-09-07T03:07:51.608Z,1.67
2022-09-07T03:10:54.426Z,1.60
2022-09-07T03:14:12.658Z,1.90
2022-09-07T03:17:17.020Z,1.30
2022-09-07T03:20:20.875Z,1.50
2022-09-07T03:23:23.492Z,1.50
2022-09-07T03:26:26.395Z,2.03
2022-09-07T03:29:29.142Z,1.90
2022-09-07T03:32:34.636Z,1.60
2022-09-07T03:35:37.269Z,2.03
2022-09-07T03:38:39.848Z,1.45
2022-09-07T03:41:42.406Z,2.33
2022-09-07T03:44:45.249Z,1.52
2022-09-07T03:47:49.166Z,1.67
2022-09-07T03:50:57.250Z,1.80
2022-09-07T03:54:00.604Z,1.80
2022-09-07T03:57:03.390Z,1.70
2022-09-07T04:00:06.860Z,1.77
2022-09-07T04:03:10.705Z,1.83
2022-09-07T04:06:14.066Z,2.10
2022-09-07T04:09:17.161Z,2.63
2022-09-07T04:12:20.317Z,2.15
2022-09-07T04:15:23.345Z,1.95
2022-09-07T04:18:27.960Z,1.77
2022-09-07T04:21:32.458Z,2.30
2022-09-07T04:24:35.553Z,1.93
2022-09-07T04:27:38.643Z,2.40
2022-09-07T04:30:41.287Z,2.58
2022-09-07T04:33:45.664Z,2.45
2022-09-07T04:36:48.191Z,1.90
2022-09-07T04:39:51.806Z,2.08
2022-09-07T04:42:54.390Z,2.33
2022-09-07T04:45:57.082Z,2.90
2022-09-07T04:49:02.972Z,2.53
2022-09-07T04:52:05.518Z,2.10
2022-09-07T04:55:08.886Z,2.42
2022-09-07T04:58:11.475Z,2.30
2022-09-07T05:01:15.725Z,2.30
2022-09-07T05:04:19.711Z,2.77
2022-09-07T05:07:22.229Z,2.90
2022-09-07T05:10:24.814Z,2.50
2022-09-07T05:13:27.320Z,2.65
2022-09-07T05:16:30.800Z,2.17
2022-09-07T05:19:34.843Z,3.53
2022-09-07T05:22:40.966Z,2.20
2022-09-07T05:25:44.670Z,2.30
2022-09-07T05:28:47.965Z,2.70
2022-09-07T05:34:54.509Z,2.23
2022-09-07T05:37:57.047Z,3.10
2022-09-07T05:41:00.461Z,3.10
2022-09-07T05:47:26.464Z,3.08
2022-09-07T05:50:30.486Z,3.25
2022-09-07T05:53:35.492Z,2.70
2022-09-07T05:56:38.235Z,4.13
2022-09-07T05:59:40.858Z,2.95
2022-09-07T06:02:43.424Z,2.90
2022-09-07T06:05:47.484Z,2.85
2022-09-07T06:08:51.275Z,3.23
2022-09-07T06:11:53.975Z,2.80
2022-09-07T06:14:56.504Z,2.92
2022-09-07T06:17:59.004Z,2.97
2022-09-07T06:21:04.836Z,2.70
2022-09-07T06:24:08.056Z,3.20
2022-09-07T06:30:13.929Z,2.90
2022-09-07T06:33:21.387Z,2.73
2022-09-07T06:36:28.190Z,2.17
2022-09-07T06:39:30.797Z,2.87
2022-09-07T06:42:33.444Z,2.25
2022-09-07T06:45:36.047Z,2.20
2022-09-07T06:48:42.675Z,2.30
2022-09-07T06:51:48.425Z,2.80
2022-09-07T06:58:00.808Z,2.47
2022-09-07T07:01:07.181Z,2.80
2022-09-07T07:04:09.848Z,3.10
2022-09-07T07:07:14.614Z,2.55
2022-09-07T07:10:22.167Z,2.20
2022-09-07T07:13:27.432Z,3.00
2022-09-07T07:19:32.624Z,2.20
2022-09-07T07:22:46.731Z,2.13
2022-09-07T07:25:49.668Z,2.10
2022-09-07T07:29:00.812Z,2.10
2022-09-07T07:32:05.201Z,2.20
2022-09-07T07:35:08.754Z,1.85
2022-09-07T07:48:20.280Z,2.47
2022-09-07T07:51:22.954Z,2.03
2022-09-07T07:54:26.812Z,1.95
2022-09-07T07:57:30.617Z,1.83
2022-09-07T08:00:52.880Z,1.80
2022-09-07T08:03:55.998Z,1.83
2022-09-07T08:06:58.587Z,1.60
2022-09-07T08:10:02.366Z,2.20
2022-09-07T08:13:05.116Z,2.00
2022-09-07T08:16:08.602Z,1.80
2022-09-07T08:19:11.182Z,1.50
2022-09-07T08:22:13.887Z,1.63
2022-09-07T08:25:18.496Z,1.20
2022-09-07T08:28:21.721Z,1.58
2022-09-07T08:31:24.534Z,1.92
2022-09-07T08:37:29.648Z,1.57
2022-09-07T08:40:37.036Z,1.65
2022-09-07T08:43:49.109Z,1.70
2022-09-07T08:46:55.931Z,1.25
2022-09-07T08:50:02.881Z,1.77
2022-09-07T08:53:08.408Z,2.13
2022-09-07T08:56:15.580Z,1.85
2022-09-07T08:59:21.536Z,1.65
2022-09-07T09:02:28.206Z,2.60
2022-09-07T09:05:38.663Z,1.73
2022-09-07T09:08:52.704Z,1.40
2022-09-07T09:12:07.511Z,2.30
2022-09-07T09:15:17.573Z,1.75
2022-09-07T09:18:31.392Z,1.50
2022-09-07T09:21:35.644Z,1.65
2022-09-07T09:24:39.787Z,1.85
2022-09-07T09:27:43.822Z,1.67
2022-09-07T09:30:47.728Z,1.60
2022-09-07T09:34:11.706Z,1.60
2022-09-07T09:37:14.350Z,2.03
2022-09-07T09:40:26.082Z,1.35
2022-09-07T09:43:35.524Z,1.60
2022-09-07T09:46:38.841Z,1.65
2022-09-07T09:49:41.658Z,1.70
2022-09-07T09:55:55.102Z,1.65
2022-09-07T10:05:58.318Z,2.00
2022-09-07T10:12:06.266Z,1.50
2022-09-07T10:15:27.140Z,1.88
2022-09-07T10:18:33.672Z,1.77
2022-09-07T10:21:36.201Z,1.98
2022-09-07T10:24:41.396Z,2.00
2022-09-07T10:27:46.683Z,2.33
2022-09-07T10:31:11.009Z,1.60
2022-09-07T10:34:27.217Z,1.65
2022-09-07T10:37:37.553Z,1.77
2022-09-07T10:40:43.420Z,1.95
2022-09-07T10:43:47.291Z,1.55
2022-09-07T10:46:57.681Z,1.60
2022-09-07T10:53:41.897Z,1.40
2022-09-07T10:56:52.950Z,1.80
2022-09-07T11:00:09.278Z,2.13
2022-09-07T11:03:32.944Z,2.10
2022-09-07T11:06:40.048Z,1.80
2022-09-07T11:09:50.184Z,1.98
2022-09-07T11:12:55.217Z,2.22
2022-09-07T11:16:00.368Z,2.25
2022-09-07T11:22:34.341Z,2.55
2022-09-07T11:25:42.086Z,1.95
2022-09-07T11:28:47.160Z,1.75
2022-09-07T11:31:52.279Z,1.98
2022-09-07T11:34:59.924Z,1.88
2022-09-07T11:38:06.484Z,1.60
2022-09-07T11:41:19.835Z,1.90
2022-09-07T11:44:25.208Z,2.13
2022-09-07T11:47:30.988Z,2.13
2022-09-07T11:50:38.421Z,1.40
2022-09-07T11:53:45.311Z,1.50
2022-09-07T11:56:51.866Z,1.20
2022-09-07T12:00:02.587Z,1.50
2022-09-07T12:03:23.627Z,1.67
2022-09-07T12:06:43.513Z,1.92
2022-09-07T12:09:56.572Z,1.45
2022-09-07T12:13:14.345Z,1.67
2022-09-07T12:16:22.408Z,1.45
2022-09-07T12:19:26.537Z,1.40
2022-09-07T12:22:30.423Z,1.65
2022-09-07T12:25:33.756Z,1.30
2022-09-07T12:29:05.561Z,1.05
2022-09-07T12:35:38.770Z,1.58
2022-09-07T12:39:24.752Z,1.40
2022-09-07T12:42:34.323Z,1.55
2022-09-07T12:45:51.670Z,1.60
2022-09-07T12:48:59.728Z,1.35
2022-09-07T12:52:16.016Z,1.40
2022-09-07T12:59:44.329Z,1.08
2022-09-07T13:03:04.315Z,1.13
2022-09-07T13:06:17.264Z,1.10
2022-09-07T13:09:31.488Z,1.13
2022-09-07T13:12:53.684Z,1.85
2022-09-07T13:16:30.051Z,1.10
2022-09-07T13:20:08.962Z,1.60
2022-09-07T13:23:29.531Z,1.45
2022-09-07T13:26:54.889Z,0.90
2022-09-07T13:29:59.858Z,0.73
2022-09-07T13:33:50.576Z,1.27
2022-09-07T13:36:54.451Z,1.25
2022-09-07T13:39:58.430Z,0.80
2022-09-07T13:43:01.908Z,1.08
2022-09-07T13:46:09.290Z,1.05
2022-09-07T13:49:20.264Z,1.02
2022-09-07T13:52:32.160Z,1.10
2022-09-07T13:55:38.719Z,1.27
2022-09-07T13:58:42.588Z,1.10
2022-09-07T14:01:47.159Z,1.20
2022-09-07T14:04:51.696Z,1.10
2022-09-07T14:07:55.477Z,1.00
2022-09-07T14:10:58.001Z,1.35
2022-09-07T14:14:24.716Z,1.13
2022-09-07T14:17:29.007Z,0.80
2022-09-07T14:20:32.323Z,1.00
2022-09-07T14:23:38.840Z,0.93
2022-09-07T14:26:46.746Z,1.10
2022-09-07T14:29:49.506Z,0.90
2022-09-07T14:32:53.693Z,0.95
2022-09-07T14:35:57.209Z,0.70
2022-09-07T14:39:04.980Z,0.80
2022-09-07T14:42:08.007Z,1.52
2022-09-07T14:45:18.337Z,1.00
2022-09-07T14:48:31.508Z,0.90
2022-09-07T14:51:36.958Z,0.90
2022-09-07T14:54:40.975Z,1.13
2022-09-07T14:57:43.444Z,1.55
2022-09-07T15:03:55.058Z,1.13
2022-09-07T15:07:04.557Z,1.30
2022-09-07T15:10:15.893Z,1.50
2022-09-07T15:13:24.923Z,1.17
2022-09-07T15:16:28.800Z,1.20
2022-09-07T15:19:35.101Z,1.70
2022-09-07T15:22:37.541Z,2.65
2022-09-07T15:25:46.531Z,1.50
2022-09-07T15:32:13.173Z,1.05
2022-09-07T15:35:16.007Z,1.30
2022-09-07T15:41:42.953Z,1.30
2022-09-07T15:44:45.488Z,1.30
2022-09-07T15:47:52.475Z,0.88
2022-09-07T15:51:02.567Z,1.73
2022-09-07T15:54:12.912Z,0.90
2022-09-07T16:00:40.259Z,1.33
2022-09-07T16:03:42.823Z,1.23
2022-09-07T16:06:48.141Z,1.05
2022-09-07T16:09:52.453Z,1.17
2022-09-07T16:13:10.475Z,0.93
2022-09-07T16:16:15.757Z,1.95
2022-09-07T16:19:21.522Z,1.10
2022-09-07T16:25:56.576Z,0.93
2022-09-07T16:29:01.528Z,1.10
2022-09-07T16:35:27.414Z,1.10
2022-09-07T16:38:47.298Z,1.48
2022-09-07T16:41:50.007Z,1.75
2022-09-07T16:47:56.851Z,1.77
2022-09-07T16:51:02.346Z,1.13
2022-09-07T16:54:06.155Z,1.60
2022-09-07T16:57:08.814Z,0.95
2022-09-07T17:03:15.921Z,1.48
2022-09-07T17:06:20.257Z,0.98
2022-09-07T17:09:26.576Z,1.10
2022-09-07T17:12:29.386Z,1.20
2022-09-07T17:15:34.819Z,1.50
2022-09-07T17:22:00.868Z,1.42
2022-09-07T17:25:03.431Z,1.73
2022-09-07T17:28:05.956Z,1.42
2022-09-07T17:31:11.690Z,1.65
2022-09-07T17:34:33.823Z,1.20
2022-09-07T17:37:36.313Z,1.10
2022-09-07T17:40:39.026Z,1.13
2022-09-07T17:43:45.239Z,1.65
2022-09-07T17:46:49.627Z,1.50
2022-09-07T17:49:52.148Z,2.10
2022-09-07T17:52:54.639Z,1.27
2022-09-07T17:55:57.179Z,1.20
2022-09-07T18:02:24.154Z,1.20
2022-09-07T18:05:26.722Z,1.00
2022-09-07T18:08:29.333Z,1.20
2022-09-07T18:11:49.087Z,1.80
2022-09-07T18:14:52.112Z,1.00
2022-09-07T18:17:57.084Z,1.60
2022-09-07T18:20:59.651Z,1.20
2022-09-07T18:24:04.801Z,0.82
2022-09-07T18:27:07.919Z,1.53
2022-09-07T18:30:11.257Z,1.23
2022-09-07T18:33:15.497Z,0.97
2022-09-07T18:36:18.127Z,1.00
2022-09-07T18:39:20.752Z,1.10
2022-09-07T18:42:23.337Z,0.80
2022-09-07T18:45:27.526Z,1.33
2022-09-07T18:48:32.061Z,1.10
2022-09-07T18:52:51.767Z,1.00
2022-09-07T18:54:57.023Z,1.10
2022-09-07T18:58:01.402Z,1.40
2022-09-07T19:01:05.068Z,1.00
2022-09-07T19:04:09.095Z,1.23
2022-09-07T19:07:12.104Z,1.40
2022-09-07T19:13:19.253Z,1.10
2022-09-07T19:16:21.848Z,1.13
2022-09-07T19:19:26.643Z,1.30
2022-09-07T19:22:29.563Z,0.93
2022-09-07T19:25:32.101Z,1.25
2022-09-07T19:28:35.501Z,0.95
2022-09-07T19:31:38.278Z,0.93
2022-09-07T19:34:43.310Z,1.45
2022-09-07T19:37:45.868Z,0.90
2022-09-07T19:40:56.260Z,0.85
2022-09-07T19:43:59.012Z,1.00
2022-09-07T19:47:01.911Z,0.98
2022-09-07T19:53:08.738Z,1.20
2022-09-07T19:56:13.744Z,1.10
2022-09-07T19:59:19.230Z,1.70
2022-09-07T20:02:21.685Z,1.03
2022-09-07T20:05:29.399Z,0.93
2022-09-07T20:08:31.912Z,1.13
2022-09-07T20:11:35.818Z,1.10
2022-09-07T20:14:38.322Z,1.20
2022-09-07T20:17:40.782Z,1.10
2022-09-07T20:20:44.763Z,1.00
2022-09-07T20:23:47.369Z,1.00
2022-09-07T20:26:50.163Z,1.10
2022-09-07T20:29:53.155Z,1.13
2022-09-07T20:32:55.720Z,1.33
2022-09-07T20:36:04.528Z,1.17
2022-09-07T20:39:07.175Z,1.10
2022-09-07T20:42:09.635Z,1.60
2022-09-07T20:45:12.251Z,1.00
2022-09-07T20:48:15.205Z,1.00
2022-09-07T20:51:21.143Z,1.27
2022-09-07T20:54:23.823Z,1.23
2022-09-07T20:57:26.530Z,1.42
2022-09-07T21:00:29.377Z,1.83
2022-09-07T21:03:32.152Z,1.40
2022-09-07T21:06:36.270Z,1.50
2022-09-07T21:09:38.839Z,1.13
2022-09-07T21:12:41.431Z,1.20
2022-09-07T21:15:45.388Z,1.35
2022-09-07T21:18:48.182Z,1.27
2022-09-07T21:21:52.007Z,1.38
2022-09-07T21:24:54.549Z,1.20
2022-09-07T21:27:57.012Z,1.33
2022-09-07T21:31:00.507Z,1.60
2022-09-07T21:34:03.624Z,0.93
2022-09-07T21:43:12.853Z,1.20
2022-09-07T21:46:17.433Z,1.35
2022-09-07T21:49:20.101Z,1.00
2022-09-07T21:52:24.018Z,2.25
2022-09-07T21:55:26.682Z,1.43
2022-09-07T21:58:30.138Z,1.20
2022-09-07T22:01:33.257Z,1.30
2022-09-07T22:07:39.683Z,1.37
2022-09-07T22:10:42.829Z,1.10
2022-09-07T22:16:48.214Z,1.55
2022-09-07T22:19:50.681Z,1.20
2022-09-07T22:22:54.663Z,1.25
2022-09-07T22:25:57.225Z,1.27
2022-09-07T22:29:00.177Z,1.30
2022-09-07T22:32:03.043Z,0.98
2022-09-07T22:35:06.467Z,1.20
2022-09-07T22:38:10.248Z,1.40
2022-09-07T22:41:13.989Z,1.30
2022-09-07T22:44:18.031Z,1.37
2022-09-07T22:47:20.881Z,1.73
2022-09-07T22:50:23.398Z,2.13
2022-09-07T22:53:27.645Z,1.25
2022-09-07T22:56:32.311Z,1.83
2022-09-07T22:59:35.076Z,1.73
2022-09-07T23:02:37.657Z,1.40
2022-09-07T23:05:40.247Z,1.48
2022-09-07T23:08:44.287Z,1.50
2022-09-07T23:11:47.732Z,2.17
2022-09-07T23:14:50.440Z,2.40
2022-09-07T23:17:52.935Z,2.42
2022-09-07T23:21:00.605Z,1.50
2022-09-07T23:24:05.090Z,1.60
2022-09-07T23:27:07.538Z,1.70
2022-09-07T23:30:11.617Z,1.52
2022-09-07T23:33:14.239Z,1.93
2022-09-07T23:36:17.269Z,1.50
2022-09-07T23:39:22.043Z,1.48
2022-09-07T23:42:24.570Z,1.60
2022-09-07T23:45:27.230Z,1.60
2022-09-07T23:48:29.969Z,1.45
2022-09-07T23:51:32.446Z,2.35
2022-09-07T23:54:36.398Z,1.60
2022-09-07T23:57:39.504Z,2.33
